createdAt,value
2022-09-12T00:01:16.745Z,68.05
2022-09-12T00:03:45.885Z,67.99
2022-09-12T00:06:22.932Z,67.95
2022-09-12T00:08:51.304Z,67.47
2022-09-12T00:11:18.412Z,67.34
2022-09-12T00:13:46.668Z,67.94
2022-09-12T00:16:22.431Z,68.73
2022-09-12T00:18:49.782Z,69.54
2022-09-12T00:21:18.838Z,69.04
2022-09-12T00:23:46.391Z,69.06
2022-09-12T00:26:12.908Z,68.62
2022-09-12T00:28:40.851Z,68.71
2022-09-12T00:31:10.806Z,68.84
2022-09-12T00:33:37.438Z,68.71
2022-09-12T00:36:06.835Z,68.02
2022-09-12T00:38:35.918Z,69.48
2022-09-12T00:41:02.506Z,67.76
2022-09-12T00:43:41.809Z,67.72
2022-09-12T00:46:29.611Z,69.16
2022-09-12T00:49:07.812Z,67.50
2022-09-12T00:51:36.584Z,68.06
2022-09-12T00:54:06.488Z,67.82
2022-09-12T00:56:33.342Z,67.54
2022-09-12T00:59:08.749Z,67.51
2022-09-12T01:01:36.657Z,68.77
2022-09-12T01:04:03.958Z,68.29
2022-09-12T01:06:36.545Z,68.11
2022-09-12T01:09:04.727Z,68.07
2022-09-12T01:11:35.938Z,67.83
2022-09-12T01:14:02.607Z,68.15
2022-09-12T01:16:29.947Z,67.83
2022-09-12T01:19:31.851Z,68.34
2022-09-12T01:22:19.621Z,67.97
2022-09-12T01:25:08.040Z,69.29
2022-09-12T01:27:37.301Z,68.35
2022-09-12T01:30:28.280Z,68.11
2022-09-12T01:33:23.733Z,67.42
2022-09-12T01:36:26.347Z,67.31
2022-09-12T01:39:04.139Z,67.73
2022-09-12T01:41:39.780Z,68.29
2022-09-12T01:44:34.354Z,67.76
2022-09-12T01:47:39.475Z,67.20
2022-09-12T01:50:12.094Z,68.07
2022-09-12T01:52:57.372Z,67.37
2022-09-12T01:55:32.594Z,67.38
2022-09-12T01:58:39.357Z,68.54
2022-09-12T02:01:26.043Z,67.61
2022-09-12T02:03:56.955Z,67.86
2022-09-12T02:06:32.284Z,66.69
2022-09-12T02:09:06.552Z,66.56
2022-09-12T02:11:36.320Z,66.90
2022-09-12T02:14:10.438Z,67.28
2022-09-12T02:16:40.736Z,66.98
2022-09-12T02:19:21.068Z,66.32
2022-09-12T02:21:53.495Z,66.38
2022-09-12T02:24:23.304Z,66.70
2022-09-12T02:26:55.242Z,66.67
2022-09-12T02:29:21.980Z,66.75
2022-09-12T02:32:04.726Z,66.71
2022-09-12T02:34:31.327Z,66.00
2022-09-12T02:37:09.932Z,65.94
2022-09-12T02:39:37.083Z,66.09
2022-09-12T02:42:04.667Z,66.24
2022-09-12T02:44:31.809Z,65.85
2022-09-12T02:47:10.782Z,65.93
2022-09-12T02:49:37.704Z,65.91
2022-09-12T02:52:04.371Z,66.95
2022-09-12T02:54:31.410Z,65.83
2022-09-12T02:56:58.013Z,65.86
2022-09-12T02:59:25.591Z,66.39
2022-09-12T03:02:04.535Z,65.32
2022-09-12T03:04:53.074Z,66.75
2022-09-12T03:07:56.492Z,67.07
2022-09-12T03:11:04.661Z,66.33
2022-09-12T03:13:50.062Z,66.32
2022-09-12T03:16:34.193Z,66.90
2022-09-12T03:19:10.887Z,66.00
2022-09-12T03:22:03.264Z,66.41
2022-09-12T03:24:35.375Z,65.59
2022-09-12T03:27:08.981Z,66.23
2022-09-12T03:29:38.775Z,67.75
2022-09-12T03:32:05.404Z,68.00
2022-09-12T03:34:32.015Z,66.25
2022-09-12T03:36:59.546Z,67.29
2022-09-12T03:39:26.983Z,66.69
2022-09-12T03:41:54.810Z,67.38
2022-09-12T03:44:21.773Z,66.81
2022-09-12T03:46:48.381Z,66.24
2022-09-12T03:49:15.238Z,67.11
2022-09-12T03:51:43.122Z,67.05
2022-09-12T03:54:10.821Z,66.49
2022-09-12T03:56:37.563Z,66.58
2022-09-12T03:59:07.314Z,66.61
2022-09-12T04:01:34.829Z,66.95
2022-09-12T04:04:01.858Z,66.11
2022-09-12T04:06:28.507Z,67.85
2022-09-12T04:08:55.548Z,67.84
2022-09-12T04:11:23.140Z,68.22
2022-09-12T04:13:49.925Z,67.77
2022-09-12T04:16:17.766Z,68.89
2022-09-12T04:18:44.648Z,67.29
2022-09-12T04:21:14.791Z,68.35
2022-09-12T04:23:41.680Z,67.94
2022-09-12T04:26:08.539Z,68.47
2022-09-12T04:28:37.292Z,67.38
2022-09-12T04:31:09.915Z,67.97
2022-09-12T04:33:36.849Z,68.21
2022-09-12T04:36:08.316Z,69.35
2022-09-12T04:38:36.494Z,70.14
2022-09-12T04:41:13.361Z,69.45
2022-09-12T04:43:40.076Z,69.73
2022-09-12T04:46:12.206Z,69.12
2022-09-12T04:48:39.064Z,68.43
2022-09-12T04:51:14.720Z,69.07
2022-09-12T04:53:42.412Z,68.49
2022-09-12T04:56:10.396Z,67.44
2022-09-12T04:58:38.072Z,67.92
2022-09-12T05:01:13.848Z,66.87
2022-09-12T05:03:43.452Z,67.90
2022-09-12T05:06:13.100Z,67.12
2022-09-12T05:08:40.011Z,66.87
2022-09-12T05:11:10.836Z,67.66
2022-09-12T05:13:37.935Z,68.09
2022-09-12T05:16:06.323Z,68.27
2022-09-12T05:18:34.935Z,67.66
2022-09-12T05:21:04.122Z,68.64
2022-09-12T05:23:31.199Z,69.27
2022-09-12T05:25:59.893Z,68.23
2022-09-12T05:28:31.287Z,67.64
2022-09-12T05:31:10.493Z,68.15
2022-09-12T05:33:39.526Z,69.69
2022-09-12T05:36:09.423Z,70.52
2022-09-12T05:38:36.552Z,69.89
2022-09-12T05:41:24.230Z,70.85
2022-09-12T05:43:53.941Z,69.92
2022-09-12T05:46:22.946Z,69.94
2022-09-12T05:48:55.118Z,69.99
2022-09-12T05:51:28.202Z,70.25
2022-09-12T05:53:57.363Z,70.50
2022-09-12T05:56:29.356Z,71.21
2022-09-12T05:58:59.242Z,70.99
2022-09-12T06:01:27.380Z,70.54
2022-09-12T06:03:56.515Z,68.49
2022-09-12T06:06:25.405Z,68.04
2022-09-12T06:08:55.786Z,69.07
2022-09-12T06:11:26.095Z,69.35
2022-09-12T06:13:53.423Z,70.16
2022-09-12T06:16:22.739Z,70.80
2022-09-12T06:18:54.663Z,71.66
2022-09-12T06:21:23.166Z,70.34
2022-09-12T06:23:50.325Z,70.92
2022-09-12T06:26:21.597Z,71.33
2022-09-12T06:28:48.392Z,69.31
2022-09-12T06:31:18.506Z,69.44
2022-09-12T06:33:48.898Z,68.79
2022-09-12T06:36:18.987Z,68.42
2022-09-12T06:38:46.428Z,69.95
2022-09-12T06:41:13.727Z,69.77
2022-09-12T06:43:41.777Z,71.07
2022-09-12T06:46:09.906Z,71.64
2022-09-12T06:48:41.785Z,73.34
2022-09-12T06:51:16.075Z,73.13
2022-09-12T06:53:44.571Z,73.19
2022-09-12T06:56:19.307Z,72.37
2022-09-12T06:58:47.241Z,70.86
2022-09-12T07:01:20.425Z,71.16
2022-09-12T07:03:49.232Z,71.24
2022-09-12T07:06:17.655Z,69.37
2022-09-12T07:08:44.603Z,68.92
2022-09-12T07:11:16.583Z,69.29
2022-09-12T07:13:45.812Z,69.60
2022-09-12T07:16:18.714Z,68.90
2022-09-12T07:18:59.980Z,68.69
2022-09-12T07:21:27.271Z,68.04
2022-09-12T07:23:56.977Z,68.22
2022-09-12T07:26:25.170Z,68.73
2022-09-12T07:29:07.827Z,68.43
2022-09-12T07:31:42.931Z,67.82
2022-09-12T07:34:09.866Z,68.03
2022-09-12T07:36:37.077Z,68.56
2022-09-12T07:39:03.940Z,68.56
2022-09-12T07:41:33.821Z,68.96
2022-09-12T07:44:02.679Z,67.07
2022-09-12T07:46:31.354Z,66.77
2022-09-12T07:49:00.008Z,67.02
2022-09-12T07:51:28.367Z,67.01
2022-09-12T07:53:56.581Z,65.47
2022-09-12T07:56:29.472Z,64.98
2022-09-12T07:58:57.874Z,65.34
2022-09-12T08:01:24.785Z,65.01
2022-09-12T08:03:57.216Z,65.83
2022-09-12T08:06:25.089Z,65.43
2022-09-12T08:08:54.146Z,65.87
2022-09-12T08:11:22.351Z,65.59
2022-09-12T08:13:54.848Z,65.31
2022-09-12T08:16:24.522Z,64.55
2022-09-12T08:18:51.313Z,64.32
2022-09-12T08:21:23.592Z,64.14
2022-09-12T08:24:04.458Z,63.99
2022-09-12T08:26:32.906Z,63.24
2022-09-12T08:29:00.117Z,63.72
2022-09-12T08:31:27.946Z,63.14
2022-09-12T08:33:58.224Z,63.03
2022-09-12T08:36:27.305Z,63.46
2022-09-12T08:38:59.669Z,63.19
2022-09-12T08:41:32.045Z,62.98
2022-09-12T08:44:04.586Z,62.66
2022-09-12T08:47:17.236Z,61.78
2022-09-12T08:50:09.568Z,60.57
2022-09-12T08:52:54.699Z,61.20
2022-09-12T08:55:34.898Z,60.27
2022-09-12T08:58:10.909Z,60.45
2022-09-12T09:01:09.863Z,60.79
2022-09-12T09:04:04.737Z,59.22
2022-09-12T09:06:34.122Z,58.86
2022-09-12T09:09:17.599Z,58.28
2022-09-12T09:12:06.732Z,57.14
2022-09-12T09:14:51.778Z,57.38
2022-09-12T09:17:31.361Z,57.32
2022-09-12T09:20:16.547Z,55.09
2022-09-12T09:22:48.934Z,55.30
2022-09-12T09:25:22.999Z,53.61
2022-09-12T09:28:17.145Z,55.85
2022-09-12T09:30:45.140Z,55.17
2022-09-12T09:33:28.838Z,54.14
2022-09-12T09:36:02.751Z,53.19
2022-09-12T09:38:49.113Z,54.55
2022-09-12T09:41:53.536Z,52.19
2022-09-12T09:44:20.637Z,51.91
2022-09-12T09:46:50.725Z,52.95
2022-09-12T09:49:18.327Z,53.08
2022-09-12T09:51:45.159Z,51.94
2022-09-12T09:54:26.308Z,51.43
2022-09-12T09:56:52.927Z,51.90
2022-09-12T09:59:31.287Z,50.93
2022-09-12T10:02:03.732Z,50.10
2022-09-12T10:04:41.111Z,49.00
2022-09-12T10:07:19.314Z,49.00
2022-09-12T10:10:04.243Z,48.61
2022-09-12T10:12:30.856Z,48.74
2022-09-12T10:15:04.063Z,47.84
2022-09-12T10:17:44.604Z,48.12
2022-09-12T10:20:33.761Z,48.13
2022-09-12T10:23:03.906Z,46.88
2022-09-12T10:25:30.957Z,47.95
2022-09-12T10:28:00.952Z,47.74
2022-09-12T10:30:28.734Z,48.04
2022-09-12T10:33:07.588Z,46.21
2022-09-12T10:35:46.048Z,45.68
2022-09-12T10:38:21.342Z,46.78
2022-09-12T10:40:58.166Z,46.30
2022-09-12T10:43:39.212Z,45.02
2022-09-12T10:46:15.754Z,45.97
2022-09-12T10:48:43.486Z,45.64
2022-09-12T10:51:27.711Z,44.75
2022-09-12T10:54:02.719Z,44.73
2022-09-12T10:56:33.543Z,42.66
2022-09-12T10:59:19.335Z,41.83
2022-09-12T11:01:55.928Z,40.50
2022-09-12T11:04:59.060Z,39.46
2022-09-12T11:07:49.340Z,38.35
2022-09-12T11:10:27.014Z,36.08
2022-09-12T11:13:17.167Z,34.74
2022-09-12T11:16:10.680Z,35.70
2022-09-12T11:18:59.536Z,34.49
2022-09-12T11:21:45.167Z,30.97
2022-09-12T11:24:11.749Z,33.11
2022-09-12T11:27:02.730Z,32.68
2022-09-12T11:29:37.222Z,32.93
2022-09-12T11:32:22.635Z,32.28
2022-09-12T11:34:49.766Z,31.30
2022-09-12T11:37:30.759Z,33.79
2022-09-12T11:40:06.412Z,32.48
2022-09-12T11:42:36.800Z,31.86
2022-09-12T11:45:13.692Z,33.88
2022-09-12T11:47:42.723Z,35.81
2022-09-12T11:50:21.849Z,36.13
2022-09-12T11:52:51.035Z,37.06
2022-09-12T11:55:19.618Z,38.90
2022-09-12T11:57:54.919Z,36.91
2022-09-12T12:00:22.886Z,38.01
2022-09-12T12:03:09.169Z,38.29
2022-09-12T12:05:50.141Z,38.66
2022-09-12T12:08:16.940Z,38.54
2022-09-12T12:10:50.917Z,38.80
2022-09-12T12:13:40.299Z,38.40
2022-09-12T12:16:19.834Z,39.96
2022-09-12T12:18:57.924Z,38.54
2022-09-12T12:21:44.223Z,39.50
2022-09-12T12:24:19.912Z,39.46
2022-09-12T12:27:12.467Z,40.41
2022-09-12T12:29:44.073Z,38.96
2022-09-12T12:32:11.034Z,37.93
2022-09-12T12:34:44.732Z,40.33
2022-09-12T12:37:20.574Z,38.66
2022-09-12T12:39:51.418Z,38.55
2022-09-12T12:42:33.839Z,38.69
2022-09-12T12:45:29.563Z,38.47
2022-09-12T12:48:23.176Z,39.45
2022-09-12T12:50:49.871Z,38.46
2022-09-12T12:53:26.091Z,38.18
2022-09-12T12:55:55.752Z,37.41
2022-09-12T12:58:40.666Z,39.14
2022-09-12T13:01:19.669Z,39.95
2022-09-12T13:04:03.723Z,40.35
2022-09-12T13:06:35.506Z,38.88
2022-09-12T13:09:06.690Z,39.86
2022-09-12T13:11:41.211Z,41.20
2022-09-12T13:14:36.434Z,40.18
2022-09-12T13:17:07.950Z,40.40
2022-09-12T13:19:38.046Z,40.13
2022-09-12T13:22:08.210Z,40.88
2022-09-12T13:24:48.781Z,40.74
2022-09-12T13:27:20.369Z,41.78
2022-09-12T13:29:47.349Z,42.07
2022-09-12T13:32:15.497Z,41.74
2022-09-12T13:35:03.966Z,40.85
2022-09-12T13:37:51.533Z,40.11
2022-09-12T13:40:30.681Z,40.10
2022-09-12T13:43:06.747Z,40.01
2022-09-12T13:45:38.126Z,40.00
2022-09-12T13:48:06.721Z,39.83
2022-09-12T13:50:40.774Z,39.74
2022-09-12T13:53:17.083Z,39.33
2022-09-12T13:55:49.137Z,39.80
2022-09-12T13:58:24.245Z,37.38
2022-09-12T14:01:12.775Z,36.33
2022-09-12T14:04:10.344Z,37.52
2022-09-12T14:06:50.142Z,33.78
2022-09-12T14:09:25.257Z,32.64
2022-09-12T14:11:53.777Z,32.47
2022-09-12T14:14:27.814Z,31.23
2022-09-12T14:16:54.855Z,31.12
2022-09-12T14:19:25.962Z,31.26
2022-09-12T14:21:54.414Z,29.42
2022-09-12T14:24:23.361Z,30.81
2022-09-12T14:26:54.221Z,33.74
2022-09-12T14:29:22.535Z,33.95
2022-09-12T14:32:01.696Z,36.40
2022-09-12T14:34:29.363Z,38.17
2022-09-12T14:36:57.184Z,39.35
2022-09-12T14:39:32.889Z,40.18
2022-09-12T14:42:13.122Z,40.16
2022-09-12T14:44:40.989Z,39.42
2022-09-12T14:47:14.189Z,38.51
2022-09-12T14:49:41.547Z,38.85
2022-09-12T14:52:22.643Z,38.04
2022-09-12T14:55:19.779Z,38.28
2022-09-12T14:57:47.923Z,40.00
2022-09-12T15:00:20.349Z,40.51
2022-09-12T15:02:48.683Z,40.00
2022-09-12T15:05:19.232Z,38.55
2022-09-12T15:07:58.071Z,38.71
2022-09-12T15:10:31.737Z,39.94
2022-09-12T15:13:10.206Z,41.60
2022-09-12T15:15:38.782Z,40.76
2022-09-12T15:18:06.779Z,40.65
2022-09-12T15:20:36.221Z,41.36
2022-09-12T15:23:02.997Z,40.63
2022-09-12T15:25:29.616Z,39.87
2022-09-12T15:27:56.545Z,40.53
2022-09-12T15:30:23.096Z,43.76
2022-09-12T15:32:49.731Z,41.82
2022-09-12T15:35:22.635Z,42.11
2022-09-12T15:37:49.819Z,41.02
2022-09-12T15:40:17.189Z,40.64
2022-09-12T15:42:43.928Z,41.76
2022-09-12T15:45:18.910Z,39.67
2022-09-12T15:47:45.867Z,42.48
2022-09-12T15:50:12.495Z,39.94
2022-09-12T15:52:39.561Z,41.77
2022-09-12T15:55:12.484Z,42.74
2022-09-12T15:57:40.450Z,40.66
2022-09-12T16:00:07.849Z,39.27
2022-09-12T16:02:38.651Z,38.56
2022-09-12T16:05:05.987Z,37.64
2022-09-12T16:07:32.844Z,36.49
2022-09-12T16:09:59.694Z,36.04
2022-09-12T16:12:26.319Z,36.63
2022-09-12T16:14:52.986Z,37.08
2022-09-12T16:17:19.642Z,37.45
2022-09-12T16:19:46.240Z,39.76
2022-09-12T16:22:12.850Z,39.06
2022-09-12T16:24:40.244Z,41.43
2022-09-12T16:27:07.056Z,42.29
2022-09-12T16:29:33.810Z,43.02
2022-09-12T16:32:00.600Z,43.55
2022-09-12T16:34:27.244Z,42.86
2022-09-12T16:36:53.822Z,44.74
2022-09-12T16:39:20.551Z,45.59
2022-09-12T16:41:47.143Z,46.38
2022-09-12T16:44:13.760Z,46.32
2022-09-12T16:46:40.379Z,46.68
2022-09-12T16:49:07.117Z,47.84
2022-09-12T16:51:37.674Z,47.51
2022-09-12T16:54:04.827Z,49.12
2022-09-12T16:56:31.312Z,48.56
2022-09-12T16:58:57.997Z,48.97
2022-09-12T17:01:26.183Z,48.82
2022-09-12T17:03:57.811Z,50.01
2022-09-12T17:06:26.078Z,50.64
2022-09-12T17:08:55.125Z,49.65
2022-09-12T17:11:31.080Z,49.52
2022-09-12T17:14:07.097Z,50.20
2022-09-12T17:16:36.279Z,51.52
2022-09-12T17:19:03.934Z,51.28
2022-09-12T17:21:30.938Z,51.66
2022-09-12T17:23:59.271Z,52.20
2022-09-12T17:26:26.775Z,52.74
2022-09-12T17:28:53.426Z,52.80
2022-09-12T17:31:20.239Z,54.92
2022-09-12T17:33:47.125Z,54.82
2022-09-12T17:36:16.591Z,54.88
2022-09-12T17:38:45.498Z,54.26
2022-09-12T17:41:17.703Z,54.88
2022-09-12T17:43:50.913Z,55.12
2022-09-12T17:46:18.573Z,54.86
2022-09-12T17:48:45.241Z,56.19
2022-09-12T17:51:14.661Z,55.66
2022-09-12T17:53:42.327Z,56.47
2022-09-12T17:56:10.273Z,57.04
2022-09-12T17:58:37.444Z,57.81
2022-09-12T18:01:32.783Z,56.84
2022-09-12T18:04:00.788Z,56.77
2022-09-12T18:06:28.670Z,57.95
2022-09-12T18:08:55.520Z,58.59
2022-09-12T18:11:22.250Z,58.46
2022-09-12T18:13:49.077Z,59.08
2022-09-12T18:16:16.436Z,59.59
2022-09-12T18:18:43.305Z,58.76
2022-09-12T18:21:11.579Z,59.90
2022-09-12T18:23:38.315Z,60.79
2022-09-12T18:26:10.423Z,60.62
2022-09-12T18:28:42.202Z,60.51
2022-09-12T18:31:17.553Z,61.14
2022-09-12T18:33:44.883Z,61.73
2022-09-12T18:36:12.306Z,58.87
2022-09-12T18:38:39.812Z,60.71
2022-09-12T18:41:08.847Z,59.22
2022-09-12T18:43:35.816Z,58.88
2022-09-12T18:46:10.569Z,58.68
2022-09-12T18:48:37.686Z,59.32
2022-09-12T18:51:08.044Z,58.93
2022-09-12T18:53:35.528Z,59.57
2022-09-12T18:56:08.614Z,58.74
2022-09-12T18:58:37.060Z,58.87
2022-09-12T19:01:10.505Z,57.75
2022-09-12T19:03:37.262Z,58.05
2022-09-12T19:06:17.711Z,57.77
2022-09-12T19:08:45.239Z,57.43
2022-09-12T19:11:12.674Z,57.93
2022-09-12T19:13:41.469Z,59.27
2022-09-12T19:16:11.334Z,58.41
2022-09-12T19:18:39.363Z,58.43
2022-09-12T19:21:14.686Z,58.58
2022-09-12T19:23:41.701Z,58.26
2022-09-12T19:26:14.630Z,58.11
2022-09-12T19:28:42.409Z,58.19
2022-09-12T19:31:12.196Z,58.38
2022-09-12T19:33:39.730Z,58.94
2022-09-12T19:36:17.506Z,57.94
2022-09-12T19:38:54.892Z,58.10
2022-09-12T19:41:21.856Z,58.02
2022-09-12T19:43:48.493Z,59.24
2022-09-12T19:46:22.426Z,59.18
2022-09-12T19:48:49.719Z,59.31
2022-09-12T19:51:17.718Z,58.75
2022-09-12T19:53:45.058Z,58.94
2022-09-12T19:56:13.997Z,59.35
2022-09-12T19:58:43.403Z,59.98
2022-09-12T20:01:16.253Z,60.20
2022-09-12T20:03:43.590Z,59.33
2022-09-12T20:06:15.890Z,57.81
2022-09-12T20:08:43.865Z,57.77
2022-09-12T20:11:12.433Z,58.40
2022-09-12T20:13:39.304Z,59.07
2022-09-12T20:16:19.044Z,59.22
2022-09-12T20:18:52.216Z,59.42
2022-09-12T20:21:20.917Z,59.33
2022-09-12T20:23:47.674Z,58.78
2022-09-12T20:26:14.313Z,59.09
2022-09-12T20:28:41.569Z,59.38
2022-09-12T20:31:14.181Z,59.30
2022-09-12T20:33:40.896Z,59.39
2022-09-12T20:36:19.333Z,60.03
2022-09-12T20:38:56.638Z,60.18
2022-09-12T20:41:24.672Z,60.45
2022-09-12T20:43:52.326Z,60.72
2022-09-12T20:46:21.868Z,61.15
2022-09-12T20:48:50.171Z,62.72
2022-09-12T20:51:17.021Z,61.88
2022-09-12T20:53:43.672Z,61.26
2022-09-12T20:56:10.351Z,62.56
2022-09-12T20:58:40.495Z,63.50
2022-09-12T21:01:11.526Z,62.73
2022-09-12T21:03:39.024Z,62.11
2022-09-12T21:06:06.369Z,61.04
2022-09-12T21:08:33.727Z,61.89
2022-09-12T21:11:00.524Z,59.99
2022-09-12T21:13:27.128Z,60.46
2022-09-12T21:16:01.651Z,59.56
2022-09-12T21:18:28.607Z,59.27
2022-09-12T21:20:56.030Z,59.77
2022-09-12T21:23:23.156Z,58.95
2022-09-12T21:25:52.627Z,59.46
2022-09-12T21:28:20.199Z,58.96
2022-09-12T21:30:50.319Z,60.57
2022-09-12T21:33:18.478Z,58.37
2022-09-12T21:35:47.284Z,58.69
2022-09-12T21:38:18.318Z,58.59
2022-09-12T21:40:45.846Z,57.92
2022-09-12T21:43:13.092Z,57.29
2022-09-12T21:45:40.251Z,57.56
2022-09-12T21:48:06.883Z,58.86
2022-09-12T21:50:33.598Z,58.91
2022-09-12T21:53:00.215Z,59.34
2022-09-12T21:55:27.444Z,59.54
2022-09-12T21:57:55.050Z,60.30
2022-09-12T22:00:22.771Z,59.56
2022-09-12T22:02:49.460Z,60.29
2022-09-12T22:05:17.342Z,60.33
2022-09-12T22:07:44.023Z,59.50
2022-09-12T22:10:10.759Z,59.21
2022-09-12T22:12:37.447Z,59.15
2022-09-12T22:15:22.920Z,59.28
2022-09-12T22:17:51.635Z,59.19
2022-09-12T22:20:18.350Z,59.49
2022-09-12T22:23:03.785Z,59.14
2022-09-12T22:25:30.726Z,59.28
2022-09-12T22:27:58.260Z,58.71
2022-09-12T22:30:27.286Z,58.95
2022-09-12T22:32:54.130Z,58.85
2022-09-12T22:35:21.038Z,58.95
2022-09-12T22:37:47.861Z,58.84
2022-09-12T22:40:15.591Z,59.11
2022-09-12T22:42:42.502Z,58.98
2022-09-12T22:45:09.674Z,58.80
2022-09-12T22:47:36.478Z,58.81
2022-09-12T22:50:03.509Z,59.20
2022-09-12T22:52:30.094Z,59.22
2022-09-12T22:54:57.291Z,59.40
2022-09-12T22:57:23.860Z,58.47
2022-09-12T22:59:50.463Z,59.66
2022-09-12T23:02:17.118Z,59.43
2022-09-12T23:04:44.188Z,61.01
2022-09-12T23:07:11.062Z,60.10
2022-09-12T23:09:37.711Z,59.16
2022-09-12T23:12:04.498Z,59.80
2022-09-12T23:14:31.166Z,60.57
2022-09-12T23:16:57.857Z,59.89
2022-09-12T23:19:24.540Z,59.08
2022-09-12T23:21:51.206Z,58.40
2022-09-12T23:24:17.977Z,59.06
2022-09-12T23:26:44.579Z,58.95
2022-09-12T23:29:11.496Z,59.34
2022-09-12T23:31:38.211Z,59.26
2022-09-12T23:34:06.151Z,59.09
2022-09-12T23:36:34.302Z,58.79
2022-09-12T23:39:01.024Z,59.75
2022-09-12T23:41:28.039Z,61.34
2022-09-12T23:43:54.811Z,60.44
2022-09-12T23:46:21.904Z,59.67
2022-09-12T23:48:48.972Z,59.46
2022-09-12T23:51:16.471Z,58.51
2022-09-12T23:53:43.091Z,59.22
2022-09-12T23:56:09.759Z,59.65
2022-09-12T23:58:36.826Z,59.64
